Create Tblcommutelog Verified Points Advance Search
| # | Trip ID | Id Commuter | Trip Date | Trip Num | Current Lat | Current Lng | Delta Distance | Current Time | Activity | Activity Confidence | Current Speed | |
|---|---|---|---|---|---|---|---|---|---|---|---|---|
| 73541 | 260226_787617_6461772_0705 | 787617 | (not set) | (not set) | 38.887627271388 | -77.012749612437 | 10.1969 | 2026-02-26 07:36:45 | in_vehicle | 100 | 4.1172315752769 | |
| 73542 | 260226_787617_6461772_0705 | 787617 | (not set) | (not set) | 38.887627271388 | -77.012749612437 | 10.1969 | 2026-02-26 07:36:45 | in_vehicle | 100 | 4.1172315752769 | |
| 73543 | 260226_786932_16444065_0724 | 786932 | (not set) | (not set) | 39.286850837709 | -76.562477293178 | 1.5905 | 2026-02-26 07:36:45 | in_vehicle | 100 | 2.150258835731 | |
| 73544 | 260226_772581_16430940_0652 | 772581 | (not set) | (not set) | 39.067269079885 | -76.727722435916 | 15.5339 | 2026-02-26 07:36:46 | in_vehicle | 100 | 16.419751982619 | |
| 73545 | 260226_786932_16444065_0725 | 786932 | (not set) | (not set) | 39.286850837709 | -76.562477293178 | 1.5905 | 2026-02-26 07:36:45 | in_vehicle | 100 | 2.150258835731 | |
| 73546 | 260226_772581_16430940_0652 | 772581 | (not set) | (not set) | 39.067269079885 | -76.727722435916 | 15.5339 | 2026-02-26 07:36:46 | in_vehicle | 100 | 16.419751982619 | |
| 73547 | 260226_792051_16661419_0647 | 792051 | (not set) | (not set) | 39.086333698108 | -76.852269233116 | 16.9696 | 2026-02-26 07:36:46 | in_vehicle | 100 | 10.098616860533 | |
| 73548 | 260226_792051_16661419_0647 | 792051 | (not set) | (not set) | 39.086333698108 | -76.852269233116 | 16.9696 | 2026-02-26 07:36:46 | in_vehicle | 100 | 10.098616860533 | |
| 73549 | 260226_777375_16441814_0658 | 777375 | (not set) | (not set) | 38.963242905471 | -76.900459863553 | 4.2905 | 2026-02-26 07:36:47 | unknown | 100 | 5.1901257968475 | |
| 73550 | 260226_731669_16507744_0645 | 731669 | (not set) | (not set) | 38.853502520008 | -77.392830045968 | 22.5002 | 2026-02-26 07:36:47 | in_vehicle | 100 | 13.876098598979 | |
| 73551 | 260226_789883_16514514_0639 | 789883 | (not set) | (not set) | 39.085980902606 | -76.851829478304 | 16.345 | 2026-02-26 07:36:47 | in_vehicle | 100 | 7.9975323432904 | |
| 73552 | 260226_772512_16490104_0729 | 772512 | (not set) | (not set) | 39.06341746991 | -76.730515333782 | 5.937 | 2026-02-26 07:36:47 | unknown | 100 | 16.540452582546 | |
| 73553 | 260226_772512_16490104_0729 | 772512 | (not set) | (not set) | 39.06341746991 | -76.730515333782 | 5.937 | 2026-02-26 07:36:47 | unknown | 100 | 16.540452582546 | |
| 73554 | 260226_781457_16513328_0703 | 781457 | (not set) | (not set) | 38.88885030658 | -77.214073131108 | 14.7026 | 2026-02-26 07:36:48 | in_vehicle | 100 | 12.74955966633 | |
| 73555 | 260226_753586_16500033_0728 | 753586 | (not set) | (not set) | 38.900231502343 | -77.009718469526 | 1.5942 | 2026-02-26 07:36:48 | in_vehicle | 100 | 4.5419188713153 | |
| 73556 | 260226_753586_16500033_0728 | 753586 | (not set) | (not set) | 38.900231502343 | -77.009718469526 | 1.5942 | 2026-02-26 07:36:48 | in_vehicle | 100 | 4.5419188713153 | |
| 73557 | 260226_785868_16514810_0726 | 785868 | (not set) | (not set) | 39.328764347901 | -76.465929648988 | 8.9597 | 2026-02-26 07:36:48 | in_vehicle | 100 | 16.410811197439 | |
| 73558 | 260226_782588_16513676_0635 | 782588 | (not set) | (not set) | 38.916172262044 | -76.924970646713 | 34.5918 | 2026-02-26 07:36:49 | in_vehicle | 100 | 17.85474800397 | |
| 73559 | 260226_786649_16516467_0700 | 786649 | (not set) | (not set) | 39.087038552815 | -76.852023568753 | 16.0369 | 2026-02-26 07:36:49 | in_vehicle | 100 | 10.143320786431 | |
| 73560 | 260226_782588_16513676_0635 | 782588 | (not set) | (not set) | 38.916172262044 | -76.924970646713 | 34.5918 | 2026-02-26 07:36:49 | in_vehicle | 100 | 17.85474800397 |